• Join FlightAware (Why Join?)
  • Login
  • US Flag 
01:17PM EDT


 

Airport Tracker/Info


-or-


 

Live Flight TrackerFlight Track Log ✈ KAP17 ✈ 07-May-2013 ✈ KBOS - KLEB

Flight Track Log - Related Links

Times and Time Zones

All times are in EDT time to prevent confusion due to time zone crossing. See the KAP17 flight status page for this flight to view local times or setup timezone preferences in your user account.

Time Position Orientation Groundspeed Altitude Reporting Facility
EDT Latitude Longitude Course Direction KTS MPH feet Rate Location/Type
08:54AM 42.3667 -71.0167 270° West 103 119 500  Level KA90
08:55AM 42.3667 -71.0667 270° West 114 131 1,700 780 Climbing KA90
08:56AM 42.3667 -71.1000 270° West 126 145 2,400 780 Climbing KA90
08:57AM 42.3833 -71.1500 294° West 131 151 3,200 780 Climbing KA90
08:58AM 42.4000 -71.2000 294° West 126 145 4,000 780 Climbing KA90
08:59AM 42.4167 -71.2333 304° West 129 148 4,700 720 Climbing KA90
09:00AM 42.4667 -71.2333 360° North 140 161 5,400 540 Climbing KA90
09:01AM 42.5167 -71.2500 346° North 149 171 5,900 240 Climbing KA90
09:02AM 42.5500 -71.2667 340° North 175 201 6,000  Climbing KA90
09:03AM 42.6000 -71.2833 346° North 172 198 6,000 -60 Level KA90
09:04AM 42.6500 -71.3000 346° North 170 196 5,900 -60 Descending KA90
09:05AM 42.6833 -71.3000 360° North 169 194 5,900  Level KA90
09:06AM 42.7333 -71.3167 346° North 170 196 5,900  Level KA90
09:07AM 42.7833 -71.3333 346° North 171 197 5,900  Level KA90
09:08AM 42.8167 -71.3500 340° North 166 191 6,000  Climbing KA90
09:09AM 42.8667 -71.3667 346° North 176 203 6,000 -60 Level KA90
09:10AM 42.9000 -71.4167 312° West 164 189 5,900 -60 Descending KA90
09:11AM 42.9333 -71.4500 324° Northwest 162 186 5,900  Level KA90
09:12AM 42.9667 -71.5000 312° West 164 189 6,000  Climbing KA90
09:13AM 43.0000 -71.5333 324° Northwest 164 189 6,000 -60 Level KA90
09:14AM 43.0333 -71.5833 312° West 165 190 5,900 -60 Descending KA90
09:15AM 43.0667 -71.6167 324° Northwest 165 190 5,900  Level KA90
09:16AM 43.1000 -71.6500 324° Northwest 167 192 5,900  Level KA90
09:17AM 43.1336 -71.6947 316° Northwest 180 207 5,900  Level Boston Center
09:18AM 43.1653 -71.7342 318° Northwest 172 198 5,900  Level Boston Center
09:19AM 43.2008 -71.7764 319° Northwest 166 191 6,000  Climbing Boston Center
09:20AM 43.2322 -71.8189 315° West 160 184 6,000  Level Boston Center
09:21AM 43.2681 -71.8614 319° Northwest 166 191 6,000  Level Boston Center
09:22AM 43.3017 -71.9039 317° Northwest 166 191 6,000  Level Boston Center
09:23AM 43.3372 -71.9464 319° Northwest 166 191 6,000 -60 Level Boston Center
09:24AM 43.3706 -71.9861 319° Northwest 166 191 5,900 -120 Descending Boston Center
09:25AM 43.4019 -72.0258 317° Northwest 166 191 5,800 -360 Descending Boston Center
09:26AM 43.4417 -72.0628 326° Northwest 172 198 5,200 -660 Descending Boston Center
09:27AM 43.4856 -72.0939 333° Northwest 177 204 4,500 -720 Descending Boston Center